KBYS

Details ICAO KBYS (BYS)
Name BICYCLE LAKE AAF
Region United States
Timezone America/Los_Angeles (UTC-7.0)
Plans Departing 2
Arriving 3
Stats Elevation 2,350 ft / 716 m (AMSL)
Location 35.281125° -116.628875°
Runways 2
Magnetic Variation 11.838° E
Sunrise 2018-05-22 12:38:58 UTC / 2018-05-22 05:38:58 Local
Sunset 2018-05-23 02:50:18 UTC / 2018-05-22 19:50:18 Local
Advertisement - Login to hide

Runways

ID Width Length Bearing (true) Bearing (mag) Surface Threshold Offset Overrun Length
04 175 ft / 53 m 9,963 ft / 3,037 m 51.93° 40.09° Dirt 0 ft / 0 m 0 ft / 0 m
13 175 ft / 53 m 5,804 ft / 1,769 m 139.74° 127.90° Dirt 0 ft / 0 m 0 ft / 0 m
22 175 ft / 53 m 9,963 ft / 3,037 m 231.94° 220.10° Dirt 0 ft / 0 m 0 ft / 0 m
31 175 ft / 53 m 5,804 ft / 1,769 m 319.75° 307.91° Dirt 0 ft / 0 m 0 ft / 0 m

Map

Weather


0- 5 10 15 20 25 30 35+ Temperature / ° C

Clouds and Precipitation
Forecast for 2018-05-22 12:00 UTC. Updated 3 hours ago

Ground ~20,000 ft ~40,000 ft Winds

METAR

KBYS 221255Z AUTO 14002KT 10SM CLR 14/05 A2982 RMK AO2 SLP075 WND DATA ESTMD T01430051

TAF

Not found

Frequencies

Tower 134.10 MHz DESERT RDO NORTH
Tower 118.17 MHz DESERT RDO ROZ 1
Warning: Do not use this data for real-world aviation or navigation. No guarantee of current accuracy is given.